Terminal Aerodrome Forecast
Issued by NWS

Home | Current Version | Previous Version | Text Only | Print | Product List | Glossary On
Versions: 1 2 3 4 5 6 7 8 9 10 11 12 13 14 15 16 17 18 19 20 21 22 23 24 25 26 27 28 29 30 31 32 33 34 35 36
000
FTUS45 KGJT 020112 AAA
TAFMTJ
TAF AMD
KMTJ 020112Z 0201/0224 26008KT P6SM FEW100 BKN250
     FM020230 19008KT P6SM SCT100 BKN250
     FM020700 14005KT P6SM SCT100 BKN250
     FM021700 26010G20KT P6SM SCT080 BKN250=

USA.gov is the U.S. government's official web portal to all federal, state and local government web resources and services.